Terminal Aerodrome Forecast
Issued by NWS Cheyenne, WY

Home | Current Version | Previous Version | Text Only | Print | Product List | Glossary On
Versions: 1 2 3 4 5 6 7 8 9 10 11 12 13 14 15
000
FTUS45 KCYS 271720
TAFCYS
TAF
KCYS 271720Z 2718/2818 22013G24KT P6SM SCT150
     FM280000 27011KT P6SM SCT150
     FM280600 31012KT P6SM BKN150
     FM281500 30017G28KT P6SM BKN080=

USA.gov is the U.S. government's official web portal to all federal, state and local government web resources and services.